createdAt,value
2018-09-19T00:00:32.423Z,79.60
2018-09-19T00:03:01.136Z,79.80
2018-09-19T00:05:29.535Z,79.40
2018-09-19T00:07:57.966Z,79.00
2018-09-19T00:10:27.011Z,79.70
2018-09-19T00:12:55.891Z,80.00
2018-09-19T00:15:24.453Z,80.20
2018-09-19T00:17:54.900Z,80.40
2018-09-19T00:20:23.321Z,80.20
2018-09-19T00:22:51.897Z,80.20
2018-09-19T00:25:20.696Z,80.50
2018-09-19T00:27:49.990Z,81.20
2018-09-19T00:30:18.714Z,80.60
2018-09-19T00:32:47.636Z,81.70
2018-09-19T00:35:18.914Z,80.80
2018-09-19T00:37:47.397Z,80.80
2018-09-19T00:40:15.939Z,80.80
2018-09-19T00:42:44.704Z,81.60
2018-09-19T00:45:15.825Z,81.50
2018-09-19T00:47:44.502Z,81.60
2018-09-19T00:50:13.272Z,81.90
2018-09-19T00:52:42.399Z,81.90
2018-09-19T00:55:10.829Z,82.10
2018-09-19T00:57:39.794Z,82.00
2018-09-19T01:00:08.402Z,82.10
2018-09-19T01:02:36.882Z,82.00
2018-09-19T01:05:05.998Z,82.20
2018-09-19T01:07:34.478Z,82.30
2018-09-19T01:10:02.941Z,82.50
2018-09-19T01:12:32.134Z,83.30
2018-09-19T01:15:00.778Z,82.30
2018-09-19T01:17:29.252Z,81.50
2018-09-19T01:19:57.926Z,81.00
2018-09-19T01:22:26.896Z,81.10
2018-09-19T01:24:55.621Z,80.80
2018-09-19T01:27:24.046Z,80.70
2018-09-19T01:29:53.272Z,81.50
2018-09-19T01:32:22.647Z,82.50
2018-09-19T01:34:51.041Z,83.20
2018-09-19T01:37:19.470Z,82.90
2018-09-19T01:39:49.462Z,83.00
2018-09-19T01:42:18.209Z,83.10
2018-09-19T01:44:46.605Z,83.20
2018-09-19T01:47:15.071Z,83.10
2018-09-19T01:49:44.067Z,83.10
2018-09-19T01:52:13.896Z,82.40
2018-09-19T01:54:42.534Z,81.40
2018-09-19T01:57:10.969Z,82.10
2018-09-19T01:59:39.423Z,82.00
2018-09-19T02:02:07.853Z,82.30
2018-09-19T02:04:36.227Z,83.60
2018-09-19T02:07:05.430Z,84.00
2018-09-19T02:09:34.211Z,84.00
2018-09-19T02:12:03.032Z,84.40
2018-09-19T02:14:31.438Z,84.20
2018-09-19T02:16:59.844Z,83.70
2018-09-19T02:19:28.573Z,84.10
2018-09-19T02:21:59.249Z,84.20
2018-09-19T02:24:27.704Z,84.10
2018-09-19T02:29:31.993Z,84.10
2018-09-19T02:32:03.386Z,83.70
2018-09-19T02:34:31.747Z,83.30
2018-09-19T02:37:04.087Z,82.90
2018-09-19T02:39:32.996Z,82.40
2018-09-19T02:42:01.423Z,81.50
2018-09-19T02:44:29.899Z,81.70
2018-09-19T02:46:58.332Z,81.90
2018-09-19T02:49:26.685Z,83.00
2018-09-19T02:51:57.865Z,84.40
2018-09-19T02:54:27.989Z,85.40
2018-09-19T02:56:58.329Z,85.60
2018-09-19T02:59:27.248Z,85.50
2018-09-19T03:01:57.982Z,84.80
2018-09-19T03:04:26.344Z,85.10
2018-09-19T03:06:54.747Z,83.80
2018-09-19T03:09:24.533Z,83.60
2018-09-19T03:11:52.951Z,83.70
2018-09-19T03:14:21.904Z,84.00
2018-09-19T03:19:20.597Z,84.90
2018-09-19T03:21:49.127Z,85.50
2018-09-19T03:24:17.543Z,85.40
2018-09-19T03:26:46.043Z,85.50
2018-09-19T03:29:14.505Z,85.30
2018-09-19T03:31:42.959Z,85.20
2018-09-19T03:34:11.825Z,84.80
2018-09-19T03:36:52.265Z,85.20
2018-09-19T03:39:21.660Z,85.30
2018-09-19T03:41:50.738Z,84.90
2018-09-19T03:44:20.197Z,85.10
2018-09-19T03:46:48.884Z,85.20
2018-09-19T03:49:20.102Z,85.20
2018-09-19T03:51:48.543Z,85.50
2018-09-19T03:54:16.963Z,85.50
2018-09-19T03:56:47.330Z,86.40
2018-09-19T03:59:15.994Z,86.50
2018-09-19T04:01:44.422Z,87.10
2018-09-19T04:04:16.921Z,86.70
2018-09-19T04:06:45.589Z,86.40
2018-09-19T04:09:14.616Z,86.90
2018-09-19T04:11:43.367Z,87.20
2018-09-19T04:14:12.630Z,87.70
2018-09-19T04:16:41.534Z,87.70
2018-09-19T04:19:10.436Z,87.90
2018-09-19T04:21:42.635Z,88.40
2018-09-19T04:24:11.255Z,89.00
2018-09-19T04:26:39.683Z,89.30
2018-09-19T04:29:08.129Z,89.30
2018-09-19T04:31:56.442Z,89.10
2018-09-19T04:34:24.824Z,89.20
2018-09-19T04:36:53.470Z,89.70
2018-09-19T04:39:22.238Z,90.00
2018-09-19T04:41:50.693Z,90.20
2018-09-19T04:44:19.100Z,90.10
2018-09-19T04:46:47.538Z,90.30
2018-09-19T04:49:16.676Z,90.40
2018-09-19T04:51:45.131Z,90.30
2018-09-19T04:54:13.607Z,90.20
2018-09-19T04:56:42.524Z,90.40
2018-09-19T04:59:13.771Z,90.60
2018-09-19T05:01:42.570Z,90.70
2018-09-19T05:04:11.367Z,90.70
2018-09-19T05:06:39.786Z,90.60
2018-09-19T05:09:10.239Z,90.70
2018-09-19T05:11:39.520Z,91.00
2018-09-19T05:14:08.287Z,90.80
2018-09-19T05:16:36.702Z,90.90
2018-09-19T05:19:05.483Z,90.80
2018-09-19T05:21:33.921Z,90.60
2018-09-19T05:24:02.362Z,90.90
2018-09-19T05:26:31.075Z,91.00
2018-09-19T05:28:59.567Z,91.20
2018-09-19T05:31:28.740Z,91.10
2018-09-19T05:33:57.170Z,91.50
2018-09-19T05:36:25.612Z,91.40
2018-09-19T05:38:54.257Z,91.40
2018-09-19T05:41:22.734Z,91.40
2018-09-19T05:43:51.735Z,91.50
2018-09-19T05:46:20.895Z,91.50
2018-09-19T05:48:49.432Z,91.20
2018-09-19T05:51:17.850Z,91.20
2018-09-19T05:53:46.725Z,91.00
2018-09-19T05:56:15.112Z,91.00
2018-09-19T05:58:43.873Z,90.40
2018-09-19T06:01:12.721Z,91.10
2018-09-19T06:03:41.147Z,91.20
2018-09-19T06:06:09.791Z,91.10
2018-09-19T06:08:50.590Z,91.70
2018-09-19T06:11:18.991Z,91.20
2018-09-19T06:13:47.425Z,91.50
2018-09-19T06:16:15.829Z,91.20
2018-09-19T06:18:44.295Z,91.40
2018-09-19T06:21:12.728Z,91.10
2018-09-19T06:23:41.400Z,91.50
2018-09-19T06:26:10.013Z,91.70
2018-09-19T06:28:38.491Z,91.60
2018-09-19T06:31:07.596Z,91.50
2018-09-19T06:33:36.003Z,91.30
2018-09-19T06:36:04.667Z,92.00
2018-09-19T06:38:33.066Z,92.00
2018-09-19T06:41:01.543Z,91.80
2018-09-19T06:43:29.907Z,92.00
2018-09-19T06:46:00.070Z,92.20
2018-09-19T06:48:28.450Z,92.10
2018-09-19T06:50:56.875Z,92.20
2018-09-19T06:53:25.334Z,92.20
2018-09-19T06:55:54.036Z,92.20
2018-09-19T06:58:24.372Z,92.00
2018-09-19T07:00:52.792Z,91.90
2018-09-19T07:03:21.218Z,91.80
2018-09-19T07:05:49.920Z,92.10
2018-09-19T07:08:20.151Z,92.40
2018-09-19T07:10:48.553Z,92.30
2018-09-19T07:13:17.263Z,92.40
2018-09-19T07:15:45.991Z,92.30
2018-09-19T07:18:14.832Z,92.20
2018-09-19T07:20:43.575Z,92.20
2018-09-19T07:23:12.530Z,92.10
2018-09-19T07:25:41.933Z,92.00
2018-09-19T07:28:10.793Z,92.10
2018-09-19T07:30:40.062Z,92.10
2018-09-19T07:33:08.745Z,91.80
2018-09-19T07:35:37.175Z,91.30
2018-09-19T07:38:07.339Z,91.10
2018-09-19T07:40:35.742Z,91.20
2018-09-19T07:43:04.539Z,90.80
2018-09-19T07:45:33.195Z,90.30
2018-09-19T07:48:01.603Z,89.60
2018-09-19T07:50:30.333Z,88.70
2018-09-19T07:53:02.904Z,86.60
2018-09-19T07:55:33.065Z,85.90
2018-09-19T07:58:02.301Z,86.10
2018-09-19T08:00:31.727Z,86.10
2018-09-19T08:03:00.124Z,85.20
2018-09-19T08:05:30.931Z,85.20
2018-09-19T08:07:59.625Z,84.50
2018-09-19T08:10:28.061Z,84.10
2018-09-19T08:12:56.975Z,82.90
2018-09-19T08:15:25.739Z,80.10
2018-09-19T08:17:54.140Z,77.50
2018-09-19T08:20:23.057Z,74.90
2018-09-19T08:22:51.502Z,68.70
2018-09-19T08:25:19.953Z,65.00
2018-09-19T08:27:48.338Z,59.80
2018-09-19T08:30:17.048Z,57.50
2018-09-19T08:32:52.056Z,56.70
2018-09-19T08:35:20.521Z,55.60
2018-09-19T08:37:48.967Z,54.00
2018-09-19T08:40:17.440Z,52.20
2018-09-19T08:42:46.349Z,49.00
2018-09-19T08:45:15.405Z,48.40
2018-09-19T08:47:43.729Z,49.50
2018-09-19T08:50:12.571Z,51.30
2018-09-19T08:52:40.991Z,53.50
2018-09-19T08:55:09.592Z,55.60
2018-09-19T08:57:37.988Z,55.40
2018-09-19T09:00:06.926Z,56.80
2018-09-19T09:02:35.473Z,56.70
2018-09-19T09:05:04.268Z,54.20
2018-09-19T09:07:32.690Z,52.80
2018-09-19T09:10:01.620Z,51.60
2018-09-19T09:12:30.465Z,51.80
2018-09-19T09:15:00.665Z,51.60
2018-09-19T09:17:29.127Z,52.40
2018-09-19T09:19:58.091Z,52.20
2018-09-19T09:22:26.460Z,48.90
2018-09-19T09:24:56.002Z,43.70
2018-09-19T09:27:25.215Z,40.10
2018-09-19T09:29:53.571Z,37.00
2018-09-19T09:32:22.494Z,34.80
2018-09-19T09:34:51.463Z,34.30
2018-09-19T09:37:20.362Z,35.90
2018-09-19T09:39:49.140Z,36.40
2018-09-19T09:42:17.551Z,37.90
2018-09-19T09:44:46.144Z,39.40
2018-09-19T09:47:14.823Z,41.60
2018-09-19T09:49:45.534Z,42.90
2018-09-19T09:52:13.887Z,44.50
2018-09-19T09:54:42.349Z,45.50
2018-09-19T09:57:11.953Z,45.70
2018-09-19T09:59:40.386Z,46.10
2018-09-19T10:02:08.988Z,45.80
2018-09-19T10:04:37.451Z,46.00
2018-09-19T10:07:06.071Z,45.50
2018-09-19T10:09:34.447Z,45.20
2018-09-19T10:12:02.903Z,45.50
2018-09-19T10:14:32.171Z,45.50
2018-09-19T10:17:01.192Z,46.30
2018-09-19T10:19:30.212Z,46.20
2018-09-19T10:21:58.654Z,47.30
2018-09-19T10:24:27.336Z,47.00
2018-09-19T10:26:58.451Z,47.70
2018-09-19T10:29:26.954Z,47.80
2018-09-19T10:31:57.634Z,47.80
2018-09-19T10:34:26.008Z,48.20
2018-09-19T10:36:55.148Z,47.90
2018-09-19T10:39:24.334Z,47.70
2018-09-19T10:41:52.952Z,47.10
2018-09-19T10:44:21.739Z,44.40
2018-09-19T10:46:51.029Z,43.10
2018-09-19T10:49:19.473Z,39.90
2018-09-19T10:51:47.971Z,37.20
2018-09-19T10:54:16.514Z,34.90
2018-09-19T10:56:44.941Z,34.60
2018-09-19T10:59:13.411Z,35.10
2018-09-19T11:01:41.971Z,34.90
2018-09-19T11:04:10.663Z,33.10
2018-09-19T11:06:41.433Z,33.90
2018-09-19T11:09:11.974Z,32.60
2018-09-19T11:11:40.394Z,30.20
2018-09-19T11:14:08.876Z,32.20
2018-09-19T11:16:37.248Z,32.00
2018-09-19T11:19:05.671Z,31.80
2018-09-19T11:21:36.297Z,31.20
2018-09-19T11:24:04.707Z,31.80
2018-09-19T11:26:33.401Z,33.20
2018-09-19T11:29:01.781Z,34.70
2018-09-19T11:31:30.469Z,33.10
2018-09-19T11:33:59.142Z,33.70
2018-09-19T11:36:27.624Z,33.50
2018-09-19T11:38:57.238Z,34.10
2018-09-19T11:41:25.690Z,34.50
2018-09-19T11:43:54.422Z,36.30
2018-09-19T11:46:22.859Z,35.70
2018-09-19T11:48:51.394Z,35.50
2018-09-19T11:51:20.084Z,36.80
2018-09-19T11:53:48.628Z,35.40
2018-09-19T11:56:17.039Z,35.50
2018-09-19T11:58:45.508Z,36.20
2018-09-19T12:01:14.680Z,37.00
2018-09-19T12:03:43.266Z,35.50
2018-09-19T12:06:11.708Z,36.10
2018-09-19T12:08:40.669Z,34.90
2018-09-19T12:11:09.089Z,34.20
2018-09-19T12:13:37.543Z,35.40
2018-09-19T12:16:06.536Z,36.00
2018-09-19T12:18:37.590Z,36.20
2018-09-19T12:21:14.408Z,36.20
2018-09-19T12:23:52.298Z,36.90
2018-09-19T12:26:21.063Z,36.10
2018-09-19T12:28:49.457Z,35.80
2018-09-19T12:31:17.855Z,35.80
2018-09-19T12:33:46.575Z,35.90
2018-09-19T12:36:15.003Z,36.40
2018-09-19T12:38:43.421Z,36.80
2018-09-19T12:41:11.834Z,36.80
2018-09-19T12:43:40.198Z,36.80
2018-09-19T12:46:17.075Z,38.50
2018-09-19T12:48:45.522Z,37.50
2018-09-19T12:51:13.934Z,38.30
2018-09-19T12:53:42.388Z,36.40
2018-09-19T12:56:11.228Z,36.70
2018-09-19T12:58:39.596Z,37.50
2018-09-19T13:01:08.052Z,38.10
2018-09-19T13:03:37.154Z,38.20
2018-09-19T13:06:05.597Z,38.20
2018-09-19T13:08:34.068Z,40.00
2018-09-19T13:11:02.401Z,39.20
2018-09-19T13:13:30.845Z,40.40
2018-09-19T13:15:59.680Z,39.80
2018-09-19T13:18:28.056Z,38.70
2018-09-19T13:20:56.656Z,40.20
2018-09-19T13:23:25.011Z,40.80
2018-09-19T13:25:53.428Z,41.00
2018-09-19T13:28:23.603Z,40.90
2018-09-19T13:30:52.304Z,42.90
2018-09-19T13:33:20.671Z,42.70
2018-09-19T13:35:49.065Z,42.20
2018-09-19T13:38:17.791Z,43.40
2018-09-19T13:40:46.450Z,42.50
2018-09-19T13:43:14.936Z,43.90
2018-09-19T13:45:43.404Z,44.00
2018-09-19T13:48:11.875Z,42.80
2018-09-19T13:50:53.487Z,44.30
2018-09-19T13:53:22.731Z,43.20
2018-09-19T13:55:52.048Z,42.20
2018-09-19T13:58:20.535Z,43.20
2018-09-19T14:00:50.246Z,44.00
2018-09-19T14:03:18.860Z,44.10
2018-09-19T14:05:49.415Z,44.50
2018-09-19T14:08:18.214Z,43.80
2018-09-19T14:10:46.650Z,44.30
2018-09-19T14:13:15.228Z,44.30
2018-09-19T14:15:43.666Z,44.70
2018-09-19T14:18:12.134Z,45.70
2018-09-19T14:20:40.824Z,46.20
2018-09-19T14:23:09.818Z,45.40
2018-09-19T14:25:38.228Z,44.30
2018-09-19T14:28:06.900Z,43.90
2018-09-19T14:30:35.789Z,44.20
2018-09-19T14:33:04.700Z,44.30
2018-09-19T14:35:33.049Z,44.50
2018-09-19T14:38:01.471Z,44.20
2018-09-19T14:40:29.870Z,44.40
2018-09-19T14:43:00.069Z,44.70
2018-09-19T14:45:28.464Z,44.00
2018-09-19T14:47:57.285Z,44.80
2018-09-19T14:50:26.683Z,44.80
2018-09-19T14:53:01.299Z,44.40
2018-09-19T14:55:29.872Z,44.00
2018-09-19T14:57:58.292Z,43.00
2018-09-19T15:00:26.814Z,43.70
2018-09-19T15:02:55.823Z,44.60
2018-09-19T15:05:24.179Z,45.50
2018-09-19T15:07:53.103Z,44.60
2018-09-19T15:10:21.522Z,44.20
2018-09-19T15:12:50.167Z,43.10
2018-09-19T15:15:19.861Z,44.00
2018-09-19T15:18:05.161Z,44.30
2018-09-19T15:20:33.506Z,43.50
2018-09-19T15:23:02.979Z,44.80
2018-09-19T15:25:31.420Z,44.50
2018-09-19T15:27:59.824Z,44.70
2018-09-19T15:30:28.248Z,45.30
2018-09-19T15:32:56.972Z,45.40
2018-09-19T15:35:37.666Z,45.10
2018-09-19T15:38:06.218Z,45.50
2018-09-19T15:40:34.825Z,46.00
2018-09-19T15:43:03.301Z,46.00
2018-09-19T15:45:31.698Z,46.30
2018-09-19T15:48:00.586Z,46.90
2018-09-19T15:50:28.969Z,46.40
2018-09-19T15:52:57.406Z,47.00
2018-09-19T15:55:25.816Z,49.10
2018-09-19T15:57:54.409Z,49.30
2018-09-19T16:00:22.952Z,51.40
2018-09-19T16:02:51.356Z,51.30
2018-09-19T16:05:19.819Z,51.00
2018-09-19T16:07:48.183Z,52.00
2018-09-19T16:10:16.619Z,52.60
2018-09-19T16:12:45.075Z,53.40
2018-09-19T16:15:13.868Z,54.20
2018-09-19T16:17:43.371Z,54.60
2018-09-19T16:20:12.884Z,54.80
2018-09-19T16:22:41.989Z,55.20
2018-09-19T16:25:10.452Z,55.30
2018-09-19T16:27:39.180Z,55.50
2018-09-19T16:30:07.630Z,55.70
2018-09-19T16:32:37.324Z,56.20
2018-09-19T16:35:05.757Z,56.30
2018-09-19T16:37:34.173Z,56.60
2018-09-19T16:40:06.355Z,56.90
2018-09-19T16:42:34.912Z,57.10
2018-09-19T16:45:03.400Z,57.30
2018-09-19T16:47:32.560Z,57.60
2018-09-19T16:50:01.613Z,58.10
2018-09-19T16:52:31.031Z,58.10
2018-09-19T16:54:59.697Z,58.50
2018-09-19T16:57:28.185Z,58.70
2018-09-19T16:59:57.793Z,59.00
2018-09-19T17:02:26.732Z,59.30
2018-09-19T17:04:57.297Z,59.70
2018-09-19T17:07:25.850Z,60.20
2018-09-19T17:09:55.072Z,60.30
2018-09-19T17:12:27.846Z,60.50
2018-09-19T17:14:56.478Z,60.90
2018-09-19T17:17:24.999Z,60.90
2018-09-19T17:19:53.601Z,61.20
2018-09-19T17:22:22.067Z,61.50
2018-09-19T17:24:50.547Z,62.00
2018-09-19T17:27:19.245Z,62.70
2018-09-19T17:29:48.053Z,63.10
2018-09-19T17:32:16.806Z,63.80
2018-09-19T17:34:45.331Z,64.50
2018-09-19T17:37:14.245Z,65.10
2018-09-19T17:39:44.588Z,65.60
2018-09-19T17:42:13.519Z,66.10
2018-09-19T17:44:42.316Z,66.60
2018-09-19T17:47:10.845Z,67.30
2018-09-19T17:49:39.274Z,67.90
2018-09-19T17:52:08.901Z,68.20
2018-09-19T17:54:37.447Z,68.30
2018-09-19T17:57:06.129Z,68.80
2018-09-19T17:59:35.605Z,69.40
2018-09-19T18:02:05.057Z,69.10
2018-09-19T18:04:33.442Z,69.70
2018-09-19T18:07:02.279Z,70.10
2018-09-19T18:09:31.053Z,70.20
2018-09-19T18:11:59.683Z,70.40
2018-09-19T18:14:28.645Z,70.50
2018-09-19T18:16:57.647Z,70.70
2018-09-19T18:19:28.905Z,71.00
2018-09-19T18:21:58.038Z,71.30
2018-09-19T18:24:26.648Z,71.50
2018-09-19T18:26:55.385Z,71.80
2018-09-19T18:29:23.792Z,72.40
2018-09-19T18:31:52.332Z,72.90
2018-09-19T18:34:21.032Z,72.50
2018-09-19T18:36:49.522Z,72.50
2018-09-19T18:39:18.827Z,73.00
2018-09-19T18:41:47.937Z,73.20
2018-09-19T18:44:17.141Z,73.30
2018-09-19T18:46:45.518Z,73.60
2018-09-19T18:49:14.219Z,73.70
2018-09-19T18:51:43.788Z,73.70
2018-09-19T18:54:13.186Z,74.00
2018-09-19T18:56:41.791Z,74.10
2018-09-19T18:59:10.752Z,74.20
2018-09-19T19:01:39.282Z,74.70
2018-09-19T19:04:07.678Z,74.50
2018-09-19T19:06:36.479Z,74.70
2018-09-19T19:09:06.755Z,75.20
2018-09-19T19:11:35.120Z,75.40
2018-09-19T19:14:05.591Z,75.40
2018-09-19T19:16:34.330Z,75.60
2018-09-19T19:19:03.182Z,75.60
2018-09-19T19:21:31.780Z,76.00
2018-09-19T19:24:00.283Z,76.30
2018-09-19T19:26:28.725Z,76.70
2018-09-19T19:28:57.095Z,76.50
2018-09-19T19:31:39.293Z,77.10
2018-09-19T19:34:07.812Z,76.90
2018-09-19T19:36:36.592Z,77.00
2018-09-19T19:39:08.024Z,76.90
2018-09-19T19:41:36.693Z,77.00
2018-09-19T19:44:05.166Z,77.10
2018-09-19T19:46:34.157Z,77.20
2018-09-19T19:49:03.370Z,77.60
2018-09-19T19:51:31.856Z,77.50
2018-09-19T19:54:00.492Z,78.10
2018-09-19T19:56:28.947Z,78.30
2018-09-19T19:58:58.086Z,78.10
2018-09-19T20:01:26.927Z,78.40
2018-09-19T20:03:55.351Z,78.80
2018-09-19T20:06:23.810Z,78.50
2018-09-19T20:08:52.303Z,78.70
2018-09-19T20:11:22.351Z,78.60
2018-09-19T20:13:51.194Z,78.60
2018-09-19T20:16:20.006Z,78.90
2018-09-19T20:18:48.401Z,79.20
2018-09-19T20:21:16.830Z,79.10
2018-09-19T20:23:45.439Z,79.40
2018-09-19T20:26:14.073Z,79.70
2018-09-19T20:28:43.188Z,79.60
2018-09-19T20:31:11.612Z,79.70
2018-09-19T20:33:41.046Z,79.60
2018-09-19T20:36:09.505Z,80.00
2018-09-19T20:38:38.253Z,80.80
2018-09-19T20:41:06.691Z,80.10
2018-09-19T20:43:35.162Z,80.40
2018-09-19T20:46:03.564Z,80.30
2018-09-19T20:48:31.979Z,81.00
2018-09-19T20:51:00.928Z,81.00
2018-09-19T20:53:36.193Z,81.10
2018-09-19T20:56:05.316Z,81.00
2018-09-19T20:58:33.747Z,81.10
2018-09-19T21:01:02.183Z,81.70
2018-09-19T21:03:30.703Z,81.50
2018-09-19T21:05:59.164Z,81.60
2018-09-19T21:08:32.044Z,81.40
2018-09-19T21:11:00.468Z,81.20
2018-09-19T21:13:28.884Z,81.10
2018-09-19T21:15:58.101Z,81.80
2018-09-19T21:18:26.612Z,81.80
2018-09-19T21:20:55.269Z,82.20
2018-09-19T21:23:28.157Z,82.30
2018-09-19T21:25:56.964Z,83.50
2018-09-19T21:28:25.494Z,83.50
2018-09-19T21:30:53.842Z,83.70
2018-09-19T21:33:23.036Z,83.30
2018-09-19T21:35:51.859Z,83.80
2018-09-19T21:38:20.804Z,83.20
2018-09-19T21:40:49.261Z,83.90
2018-09-19T21:43:17.623Z,83.60
2018-09-19T21:45:46.100Z,83.40
2018-09-19T21:48:14.496Z,83.50
2018-09-19T21:50:45.622Z,83.70
2018-09-19T21:53:14.074Z,84.30
2018-09-19T21:55:42.784Z,83.70
2018-09-19T21:58:11.309Z,83.50
2018-09-19T22:00:40.211Z,83.50
2018-09-19T22:03:08.588Z,83.10
2018-09-19T22:05:37.031Z,83.30
2018-09-19T22:08:05.388Z,83.90
2018-09-19T22:10:33.863Z,83.30
2018-09-19T22:13:02.255Z,83.40
2018-09-19T22:15:30.713Z,83.10
2018-09-19T22:17:59.401Z,83.20
2018-09-19T22:20:29.592Z,83.40
2018-09-19T22:22:58.684Z,83.30
2018-09-19T22:25:27.351Z,83.50
2018-09-19T22:27:55.780Z,83.00
2018-09-19T22:30:24.463Z,83.00
2018-09-19T22:32:53.558Z,83.20
2018-09-19T22:35:24.089Z,83.00
2018-09-19T22:37:53.415Z,82.70
2018-09-19T22:40:22.572Z,82.60
2018-09-19T22:42:51.153Z,82.80
2018-09-19T22:45:20.229Z,83.20
2018-09-19T22:47:49.053Z,83.10
2018-09-19T22:50:17.501Z,82.70
2018-09-19T22:52:46.226Z,83.00
2018-09-19T22:55:15.784Z,83.30
2018-09-19T22:57:44.339Z,83.00
2018-09-19T23:00:13.860Z,83.20
2018-09-19T23:02:42.255Z,83.40
2018-09-19T23:05:10.663Z,83.80
2018-09-19T23:07:39.085Z,84.10
2018-09-19T23:10:07.524Z,84.20
2018-09-19T23:12:36.007Z,84.20
2018-09-19T23:15:04.777Z,84.20
2018-09-19T23:17:33.217Z,84.00
2018-09-19T23:20:01.899Z,84.10
2018-09-19T23:22:30.595Z,83.60
2018-09-19T23:24:59.003Z,83.80
2018-09-19T23:27:27.418Z,83.90
2018-09-19T23:29:56.767Z,84.00
2018-09-19T23:32:25.165Z,84.60
2018-09-19T23:34:53.941Z,85.00
2018-09-19T23:37:22.356Z,84.70
2018-09-19T23:39:51.057Z,85.20
2018-09-19T23:42:19.845Z,84.70
2018-09-19T23:44:48.248Z,85.00
2018-09-19T23:47:16.726Z,84.70
2018-09-19T23:49:45.175Z,85.20
2018-09-19T23:52:13.900Z,85.00
2018-09-19T23:54:42.294Z,85.20
2018-09-19T23:57:10.631Z,85.00
2018-09-19T23:59:39.055Z,85.00
